createdAt,value
2022-11-19T00:00:48.742Z,17.9
2022-11-19T00:01:51.266Z,17.9
2022-11-19T00:02:53.671Z,17.9
2022-11-19T00:03:55.892Z,17.9
2022-11-19T00:04:57.817Z,17.8
2022-11-19T00:06:00.380Z,18
2022-11-19T00:07:02.925Z,17.9
2022-11-19T00:08:05.396Z,17.9
2022-11-19T00:09:07.048Z,17.9
2022-11-19T00:10:09.532Z,17.9
2022-11-19T00:11:11.745Z,17.8
2022-11-19T00:12:14.235Z,17.9
2022-11-19T00:13:16.719Z,17.9
2022-11-19T00:14:19.303Z,18
2022-11-19T00:15:21.501Z,17.9
2022-11-19T00:16:23.993Z,17.9
2022-11-19T00:17:26.464Z,17.8
2022-11-19T00:18:28.381Z,17.9
2022-11-19T00:19:30.583Z,17.9
2022-11-19T00:20:33.086Z,17.9
2022-11-19T00:21:35.760Z,17.9
2022-11-19T00:22:38.252Z,18
2022-11-19T00:23:39.891Z,17.9
2022-11-19T00:24:42.107Z,17.8
2022-11-19T00:25:44.304Z,17.9
2022-11-19T00:26:46.539Z,17.9
2022-11-19T00:27:49.023Z,17.8
2022-11-19T00:28:51.495Z,17.9
2022-11-19T00:29:53.973Z,17.8
2022-11-19T00:30:56.169Z,17.8
2022-11-19T00:31:58.370Z,17.9
2022-11-19T00:33:00.577Z,17.9
2022-11-19T00:34:03.045Z,17.9
2022-11-19T00:35:05.253Z,17.9
2022-11-19T00:36:07.756Z,17.9
2022-11-19T00:37:10.309Z,17.8
2022-11-19T00:38:12.505Z,17.9
2022-11-19T00:39:14.149Z,17.9
2022-11-19T00:40:16.623Z,17.9
2022-11-19T00:41:19.095Z,18
2022-11-19T00:42:21.321Z,17.9
2022-11-19T00:43:23.528Z,17.9
2022-11-19T00:44:26.012Z,17.9
2022-11-19T00:45:32.972Z,17.8
2022-11-19T00:46:35.306Z,17.9
2022-11-19T00:47:37.537Z,17.9
2022-11-19T00:48:40.037Z,17.8
2022-11-19T00:49:42.238Z,17.9
2022-11-19T00:50:44.450Z,17.9
2022-11-19T00:51:46.967Z,17.9
2022-11-19T00:52:49.309Z,17.8
2022-11-19T00:53:51.231Z,17.8
2022-11-19T00:54:53.441Z,17.9
2022-11-19T00:55:55.941Z,17.9
2022-11-19T00:56:58.425Z,17.8
2022-11-19T00:58:00.655Z,17.9
2022-11-19T00:59:02.872Z,17.9
2022-11-19T01:00:05.085Z,18
2022-11-19T01:01:07.409Z,17.9
2022-11-19T01:02:09.873Z,17.9
2022-11-19T01:03:12.358Z,17.9
2022-11-19T01:04:14.826Z,17.9
2022-11-19T01:05:17.311Z,17.9
2022-11-19T01:06:20.259Z,17.9
2022-11-19T01:07:22.864Z,17.9
2022-11-19T01:08:25.360Z,17.9
2022-11-19T01:09:27.847Z,17.8
2022-11-19T01:10:30.318Z,17.9
2022-11-19T01:11:32.793Z,17.9
2022-11-19T01:12:35.375Z,17.8
2022-11-19T01:13:37.600Z,17.9
2022-11-19T01:14:39.790Z,18
2022-11-19T01:15:42.265Z,17.8
2022-11-19T01:16:44.481Z,17.9
2022-11-19T01:17:46.972Z,17.9
2022-11-19T01:18:49.171Z,17.9
2022-11-19T01:19:51.655Z,17.9
2022-11-19T01:20:54.161Z,18
2022-11-19T01:21:56.664Z,17.8
2022-11-19T01:22:59.178Z,17.8
2022-11-19T01:24:01.724Z,17.9
2022-11-19T01:25:03.919Z,17.8
2022-11-19T01:26:06.127Z,17.8
2022-11-19T01:27:08.324Z,17.8
2022-11-19T01:28:10.800Z,17.9
2022-11-19T01:29:13.299Z,17.9
2022-11-19T01:30:15.535Z,17.9
2022-11-19T01:31:18.017Z,17.8
2022-11-19T01:32:20.532Z,18
2022-11-19T01:33:22.448Z,17.9
2022-11-19T01:34:24.497Z,17.8
2022-11-19T01:35:26.703Z,17.9
2022-11-19T01:36:29.198Z,17.9
2022-11-19T01:37:31.429Z,18
2022-11-19T01:38:33.666Z,17.9
2022-11-19T01:39:35.935Z,17.9
2022-11-19T01:40:37.854Z,17.9
2022-11-19T01:41:40.344Z,17.9
2022-11-19T01:42:42.828Z,17.8
2022-11-19T01:43:45.314Z,17.9
2022-11-19T01:44:47.812Z,17.9
2022-11-19T01:45:50.025Z,17.8
2022-11-19T01:46:52.503Z,17.9
2022-11-19T01:47:54.990Z,17.9
2022-11-19T01:48:57.186Z,17.8
2022-11-19T01:49:59.120Z,17.9
2022-11-19T01:51:01.604Z,17.9
2022-11-19T01:52:04.101Z,17.9
2022-11-19T01:53:06.582Z,17.9
2022-11-19T01:54:09.101Z,17.8
2022-11-19T01:55:11.398Z,17.8
2022-11-19T01:56:13.603Z,17.9
2022-11-19T01:57:16.072Z,17.8
2022-11-19T01:58:18.288Z,17.8
2022-11-19T01:59:22.075Z,17.9
2022-11-19T02:00:25.967Z,17.9
2022-11-19T02:01:28.610Z,18
2022-11-19T02:02:31.236Z,17.9
2022-11-19T02:03:33.717Z,17.9
2022-11-19T02:04:35.922Z,17.9
2022-11-19T02:05:37.845Z,17.9
2022-11-19T02:06:39.774Z,17.9
2022-11-19T02:07:42.253Z,17.9
2022-11-19T02:08:44.469Z,17.9
2022-11-19T02:09:46.993Z,17.9
2022-11-19T02:10:49.552Z,17.8
2022-11-19T02:11:52.031Z,17.9
2022-11-19T02:12:54.509Z,17.8
2022-11-19T02:13:56.984Z,17.9
2022-11-19T02:14:59.204Z,17.8
2022-11-19T02:16:01.703Z,18
2022-11-19T02:17:04.184Z,17.8
2022-11-19T02:18:06.649Z,17.8
2022-11-19T02:19:09.120Z,18
2022-11-19T02:20:11.317Z,17.9
2022-11-19T02:21:13.504Z,17.9
2022-11-19T02:22:15.988Z,17.9
2022-11-19T02:23:18.472Z,17.9
2022-11-19T02:24:20.941Z,17.9
2022-11-19T02:25:23.441Z,17.9
2022-11-19T02:26:26.072Z,17.9
2022-11-19T02:27:28.262Z,17.8
2022-11-19T02:28:30.730Z,17.9
2022-11-19T02:29:33.219Z,17.9
2022-11-19T02:30:35.691Z,17.9
2022-11-19T02:31:38.197Z,17.9
2022-11-19T02:32:40.128Z,17.9
2022-11-19T02:33:42.611Z,17.9
2022-11-19T02:34:45.114Z,17.9
2022-11-19T02:35:47.598Z,17.9
2022-11-19T02:36:50.093Z,17.9
2022-11-19T02:37:52.563Z,17.9
2022-11-19T02:38:55.059Z,17.8
2022-11-19T02:39:57.536Z,17.9
2022-11-19T02:40:59.468Z,17.9
2022-11-19T02:42:02.016Z,18
2022-11-19T02:43:04.516Z,17.8
2022-11-19T02:44:06.704Z,17.9
2022-11-19T02:45:09.181Z,17.9
2022-11-19T02:46:11.382Z,17.9
2022-11-19T02:47:13.879Z,18
2022-11-19T02:48:16.353Z,17.9
2022-11-19T02:49:19.198Z,17.8
2022-11-19T02:50:22.549Z,17.9
2022-11-19T02:51:24.740Z,17.9
2022-11-19T02:52:27.222Z,17.9
2022-11-19T02:53:29.719Z,17.8
2022-11-19T02:54:32.188Z,17.8
2022-11-19T02:55:34.402Z,17.8
2022-11-19T02:56:36.898Z,17.9
2022-11-19T02:57:39.439Z,17.9
2022-11-19T02:58:41.910Z,17.9
2022-11-19T02:59:44.135Z,17.9
2022-11-19T03:00:46.062Z,17.9
2022-11-19T03:01:47.813Z,17.8
2022-11-19T03:02:50.300Z,17.8
2022-11-19T03:03:52.782Z,17.9
2022-11-19T03:04:54.716Z,17.9
2022-11-19T03:05:56.922Z,17.8
2022-11-19T03:06:59.478Z,17.8
2022-11-19T03:08:02.203Z,17.9
2022-11-19T03:09:04.667Z,17.9
2022-11-19T03:10:06.338Z,17.9
2022-11-19T03:11:08.804Z,17.9
2022-11-19T03:12:11.042Z,17.9
2022-11-19T03:13:13.617Z,17.9
2022-11-19T03:14:16.113Z,17.9
2022-11-19T03:15:18.584Z,17.8
2022-11-19T03:16:21.082Z,17.9
2022-11-19T03:17:23.552Z,17.9
2022-11-19T03:18:26.083Z,17.9
2022-11-19T03:19:28.268Z,17.8
2022-11-19T03:20:30.490Z,18
2022-11-19T03:21:33.070Z,17.9
2022-11-19T03:22:34.989Z,17.9
2022-11-19T03:23:36.630Z,17.9
2022-11-19T03:24:39.114Z,17.9
2022-11-19T03:25:41.027Z,17.8
2022-11-19T03:26:42.944Z,17.8
2022-11-19T03:27:45.457Z,17.9
2022-11-19T03:28:48.007Z,17.9
2022-11-19T03:29:50.231Z,17.8
2022-11-19T03:30:52.133Z,17.8
2022-11-19T03:31:54.363Z,17.8
2022-11-19T03:32:56.567Z,17.7
2022-11-19T03:33:59.138Z,17.9
2022-11-19T03:35:01.611Z,17.8
2022-11-19T03:36:03.810Z,17.8
2022-11-19T03:37:05.723Z,17.8
2022-11-19T03:38:07.657Z,17.8
2022-11-19T03:39:10.143Z,17.8
2022-11-19T03:40:12.350Z,17.8
2022-11-19T03:41:14.527Z,17.9
2022-11-19T03:42:17.004Z,17.9
2022-11-19T03:43:19.505Z,17.8
2022-11-19T03:44:22.155Z,17.9
2022-11-19T03:45:24.360Z,17.9
2022-11-19T03:46:26.555Z,17.9
2022-11-19T03:47:29.027Z,17.9
2022-11-19T03:48:31.513Z,17.8
2022-11-19T03:49:34.018Z,17.8
2022-11-19T03:50:36.507Z,17.8
2022-11-19T03:51:38.981Z,17.9
2022-11-19T03:52:41.464Z,17.9
2022-11-19T03:53:43.946Z,17.9
2022-11-19T03:54:46.430Z,17.9
2022-11-19T03:55:48.643Z,17.8
2022-11-19T03:56:50.855Z,17.8
2022-11-19T03:57:53.323Z,17.8
2022-11-19T03:58:55.847Z,17.9
2022-11-19T03:59:58.405Z,18
2022-11-19T04:01:00.904Z,17.9
2022-11-19T04:02:03.518Z,17.9
2022-11-19T04:03:06.210Z,17.9
2022-11-19T04:04:08.689Z,17.9
2022-11-19T04:05:11.189Z,17.9
2022-11-19T04:06:13.120Z,17.9
2022-11-19T04:07:15.434Z,17.8
2022-11-19T04:08:17.863Z,17.8
2022-11-19T04:09:21.035Z,17.8
2022-11-19T04:10:24.260Z,17.9
2022-11-19T04:12:27.503Z,17.9
2022-11-19T04:13:29.715Z,17.9
2022-11-19T04:14:32.231Z,17.9
2022-11-19T04:15:34.775Z,17.9
2022-11-19T04:16:37.263Z,17.9
2022-11-19T04:17:39.481Z,17.9
2022-11-19T04:18:41.706Z,17.8
2022-11-19T04:19:43.925Z,17.8
2022-11-19T04:20:46.170Z,17.9
2022-11-19T04:21:48.370Z,17.8
2022-11-19T04:22:50.870Z,17.8
2022-11-19T04:23:53.337Z,17.9
2022-11-19T04:24:55.259Z,17.8
2022-11-19T04:25:57.728Z,17.8
2022-11-19T04:27:00.227Z,17.8
2022-11-19T04:28:02.434Z,17.7
2022-11-19T04:29:04.927Z,17.8
2022-11-19T04:30:07.435Z,17.8
2022-11-19T04:32:14.962Z,17.8
2022-11-19T04:33:17.176Z,17.8
2022-11-19T04:34:19.655Z,17.8
2022-11-19T04:35:21.882Z,17.8
2022-11-19T04:36:24.399Z,17.8
2022-11-19T04:37:26.890Z,17.9
2022-11-19T04:38:29.360Z,17.9
2022-11-19T04:39:31.569Z,17.9
2022-11-19T04:40:34.052Z,17.9
2022-11-19T04:41:36.530Z,17.9
2022-11-19T04:42:39.011Z,17.9
2022-11-19T04:43:41.491Z,17.8
2022-11-19T04:44:43.686Z,17.8
2022-11-19T04:45:46.196Z,17.8
2022-11-19T04:46:48.743Z,17.8
2022-11-19T04:47:51.222Z,17.8
2022-11-19T04:48:53.417Z,17.8
2022-11-19T04:49:55.617Z,17.9
2022-11-19T04:50:58.085Z,17.8
2022-11-19T04:52:00.301Z,17.8
2022-11-19T04:53:02.496Z,17.9
2022-11-19T04:54:04.988Z,17.9
2022-11-19T04:55:07.460Z,17.8
2022-11-19T04:56:09.643Z,17.9
2022-11-19T04:57:12.114Z,17.8
2022-11-19T04:58:14.341Z,17.8
2022-11-19T04:59:17.306Z,17.8
2022-11-19T05:00:21.110Z,17.9
2022-11-19T05:01:23.857Z,17.8
2022-11-19T05:02:26.675Z,17.8
2022-11-19T05:03:29.155Z,17.8
2022-11-19T05:04:31.639Z,17.8
2022-11-19T05:05:33.825Z,17.8
2022-11-19T05:06:36.009Z,17.8
2022-11-19T05:07:38.656Z,17.8
2022-11-19T05:08:41.513Z,17.8
2022-11-19T05:09:43.994Z,17.8
2022-11-19T05:10:46.470Z,17.9
2022-11-19T05:11:48.949Z,17.9
2022-11-19T05:12:50.883Z,17.8
2022-11-19T05:13:53.080Z,17.9
2022-11-19T05:14:55.561Z,17.8
2022-11-19T05:15:57.734Z,17.9
2022-11-19T05:16:59.963Z,17.7
2022-11-19T05:18:02.497Z,17.8
2022-11-19T05:19:04.440Z,17.9
2022-11-19T05:20:06.639Z,17.8
2022-11-19T05:21:09.134Z,17.8
2022-11-19T05:22:11.332Z,17.8
2022-11-19T05:23:13.861Z,17.8
2022-11-19T05:24:16.056Z,17.8
2022-11-19T05:25:18.278Z,17.8
2022-11-19T05:26:20.761Z,17.8
2022-11-19T05:27:23.233Z,17.8
2022-11-19T05:29:30.742Z,17.9
2022-11-19T05:30:33.287Z,17.8
2022-11-19T05:31:35.481Z,17.8
2022-11-19T05:32:37.747Z,17.8
2022-11-19T05:33:40.272Z,17.8
2022-11-19T05:34:41.937Z,17.9
2022-11-19T05:35:44.405Z,17.8
2022-11-19T05:36:46.900Z,17.9
2022-11-19T05:37:49.091Z,17.8
2022-11-19T05:38:51.319Z,17.8
2022-11-19T05:39:53.500Z,17.8
2022-11-19T05:40:55.985Z,17.9
2022-11-19T05:41:58.485Z,17.8
2022-11-19T05:43:00.966Z,17.8
2022-11-19T05:44:03.159Z,17.9
2022-11-19T05:45:05.367Z,17.8
2022-11-19T05:46:07.840Z,17.8
2022-11-19T05:47:10.320Z,17.8
2022-11-19T05:48:12.610Z,17.8
2022-11-19T05:49:15.153Z,17.8
2022-11-19T05:50:17.913Z,17.8
2022-11-19T05:51:20.106Z,17.8
2022-11-19T05:52:22.022Z,17.8
2022-11-19T05:53:24.508Z,17.8
2022-11-19T05:54:27.197Z,17.9
2022-11-19T05:55:29.690Z,17.8
2022-11-19T05:56:31.881Z,17.8
2022-11-19T05:57:34.071Z,17.8
2022-11-19T05:58:36.552Z,17.8
2022-11-19T06:00:44.160Z,17.9
2022-11-19T06:01:46.363Z,17.8
2022-11-19T06:02:48.911Z,17.8
2022-11-19T06:03:51.650Z,17.8
2022-11-19T06:04:54.184Z,17.8
2022-11-19T06:05:56.668Z,17.8
2022-11-19T06:06:58.648Z,17.8
2022-11-19T06:08:01.465Z,17.8
2022-11-19T06:09:03.365Z,17.8
2022-11-19T06:10:05.889Z,17.7
2022-11-19T06:11:08.091Z,17.8
2022-11-19T06:12:10.315Z,17.9
2022-11-19T06:13:12.230Z,17.8
2022-11-19T06:14:14.423Z,17.8
2022-11-19T06:15:16.895Z,17.8
2022-11-19T06:16:19.105Z,17.8
2022-11-19T06:17:21.319Z,17.8
2022-11-19T06:18:23.528Z,17.9
2022-11-19T06:19:25.205Z,17.8
2022-11-19T06:20:27.783Z,17.8
2022-11-19T06:21:30.335Z,17.8
2022-11-19T06:22:32.554Z,17.8
2022-11-19T06:23:35.040Z,17.8
2022-11-19T06:24:37.529Z,17.8
2022-11-19T06:25:40.028Z,17.9
2022-11-19T06:26:42.501Z,17.8
2022-11-19T06:27:44.976Z,17.8
2022-11-19T06:28:47.471Z,17.8
2022-11-19T06:30:54.940Z,17.8
2022-11-19T06:31:57.149Z,17.8
2022-11-19T06:32:59.071Z,17.9
2022-11-19T06:34:01.600Z,17.8
2022-11-19T06:35:04.105Z,17.8
2022-11-19T06:36:06.637Z,17.9
2022-11-19T06:37:09.323Z,17.8
2022-11-19T06:38:11.875Z,17.8
2022-11-19T06:39:14.465Z,17.8
2022-11-19T06:40:16.947Z,17.8
2022-11-19T06:41:19.177Z,17.8
2022-11-19T06:42:21.390Z,17.8
2022-11-19T06:43:23.860Z,17.7
2022-11-19T06:44:26.338Z,17.8
2022-11-19T06:45:28.811Z,17.8
2022-11-19T06:46:31.299Z,17.8
2022-11-19T06:47:33.784Z,17.8
2022-11-19T06:48:35.989Z,17.7
2022-11-19T06:49:37.916Z,17.8
2022-11-19T06:50:39.583Z,17.8
2022-11-19T06:51:42.111Z,17.8
2022-11-19T06:52:44.324Z,17.8
2022-11-19T06:53:46.801Z,17.8
2022-11-19T06:54:48.504Z,17.8
2022-11-19T06:55:50.986Z,17.8
2022-11-19T06:56:53.482Z,17.8
2022-11-19T06:57:55.957Z,17.8
2022-11-19T06:58:58.467Z,17.8
2022-11-19T07:00:00.958Z,17.8
2022-11-19T07:01:03.163Z,17.8
2022-11-19T07:02:05.806Z,17.8
2022-11-19T07:03:08.064Z,17.8
2022-11-19T07:04:10.537Z,17.8
2022-11-19T07:05:13.016Z,17.8
2022-11-19T07:06:15.518Z,17.8
2022-11-19T07:07:18.156Z,17.8
2022-11-19T07:08:20.809Z,17.8
2022-11-19T07:09:23.025Z,17.8
2022-11-19T07:10:25.241Z,17.8
2022-11-19T07:11:27.453Z,17.7
2022-11-19T07:12:29.684Z,17.8
2022-11-19T07:13:32.163Z,17.8
2022-11-19T07:14:34.081Z,17.9
2022-11-19T07:15:36.574Z,17.8
2022-11-19T07:16:39.076Z,17.8
2022-11-19T07:17:41.312Z,17.8
2022-11-19T07:18:43.509Z,17.8
2022-11-19T07:19:45.996Z,17.8
2022-11-19T07:20:48.588Z,17.8
2022-11-19T07:21:51.219Z,17.8
2022-11-19T07:23:58.617Z,17.8
2022-11-19T07:25:01.119Z,17.7
2022-11-19T07:26:03.332Z,17.8
2022-11-19T07:27:05.555Z,17.8
2022-11-19T07:28:08.113Z,17.8
2022-11-19T07:29:10.652Z,17.8
2022-11-19T07:30:12.858Z,17.8
2022-11-19T07:31:15.635Z,17.8
2022-11-19T07:32:17.786Z,17.9
2022-11-19T07:33:20.290Z,17.8
2022-11-19T07:34:22.874Z,17.8
2022-11-19T07:35:24.810Z,17.8
2022-11-19T07:36:26.483Z,17.8
2022-11-19T07:37:28.432Z,17.8
2022-11-19T07:39:36.014Z,17.8
2022-11-19T07:40:38.532Z,17.8
2022-11-19T07:41:41.036Z,17.8
2022-11-19T07:42:43.275Z,17.8
2022-11-19T07:43:45.845Z,17.8
2022-11-19T07:45:53.081Z,17.8
2022-11-19T07:46:55.597Z,17.8
2022-11-19T07:47:58.085Z,17.8
2022-11-19T07:49:00.575Z,17.8
2022-11-19T07:50:02.821Z,17.8
2022-11-19T07:51:04.768Z,17.8
2022-11-19T07:52:06.673Z,17.8
2022-11-19T07:53:08.923Z,17.8
2022-11-19T07:54:11.498Z,17.8
2022-11-19T07:55:28.730Z,17.8
2022-11-19T07:56:30.658Z,17.8
2022-11-19T07:57:33.253Z,17.7
2022-11-19T07:58:35.521Z,17.8
2022-11-19T07:59:38.020Z,17.8
2022-11-19T08:00:39.986Z,17.8
2022-11-19T08:01:42.671Z,17.8
2022-11-19T08:02:45.483Z,17.8
2022-11-19T08:04:52.760Z,17.8
2022-11-19T08:05:54.989Z,17.8
2022-11-19T08:06:57.362Z,17.8
2022-11-19T08:07:59.862Z,17.8
2022-11-19T08:09:02.161Z,17.8
2022-11-19T08:10:04.869Z,17.8
2022-11-19T08:11:06.800Z,17.9
2022-11-19T08:12:09.307Z,17.7
2022-11-19T08:13:11.778Z,17.8
2022-11-19T08:14:14.266Z,17.8
2022-11-19T08:15:16.774Z,17.8
2022-11-19T08:16:18.959Z,17.8
2022-11-19T08:17:21.229Z,17.7
2022-11-19T08:19:28.710Z,17.7
2022-11-19T08:20:30.077Z,17.8
2022-11-19T08:21:32.286Z,17.8
2022-11-19T08:22:35.103Z,17.8
2022-11-19T08:23:37.922Z,17.8
2022-11-19T08:24:40.544Z,17.8
2022-11-19T08:25:42.929Z,17.8
2022-11-19T08:26:45.435Z,17.8
2022-11-19T08:27:47.959Z,17.8
2022-11-19T08:28:50.491Z,17.8
2022-11-19T08:29:53.010Z,17.8
2022-11-19T08:30:55.662Z,17.8
2022-11-19T08:31:57.931Z,17.8
2022-11-19T08:33:00.123Z,17.7
2022-11-19T08:34:02.613Z,17.8
2022-11-19T08:35:04.871Z,17.7
2022-11-19T08:36:07.169Z,17.8
2022-11-19T08:37:09.691Z,17.9
2022-11-19T08:38:11.929Z,17.8
2022-11-19T08:39:14.150Z,17.8
2022-11-19T08:40:16.673Z,17.8
2022-11-19T08:41:19.269Z,17.7
2022-11-19T08:42:21.517Z,17.7
2022-11-19T08:43:24.017Z,17.8
2022-11-19T08:44:26.224Z,17.8
2022-11-19T08:45:28.441Z,17.8
2022-11-19T08:46:30.949Z,17.8
2022-11-19T08:47:33.465Z,17.8
2022-11-19T08:48:36.534Z,17.7
2022-11-19T08:49:39.134Z,17.8
2022-11-19T08:50:41.766Z,17.8
2022-11-19T08:51:44.403Z,17.8
2022-11-19T08:52:47.171Z,17.8
2022-11-19T08:53:49.465Z,17.8
2022-11-19T08:54:51.793Z,17.8
2022-11-19T08:55:54.113Z,17.8
2022-11-19T08:56:56.802Z,17.7
2022-11-19T08:57:59.295Z,17.8
2022-11-19T08:59:03.730Z,17.8
2022-11-19T09:00:07.188Z,17.8
2022-11-19T09:01:09.398Z,17.7
2022-11-19T09:02:11.901Z,17.8
2022-11-19T09:03:14.128Z,17.8
2022-11-19T09:04:16.391Z,17.8
2022-11-19T09:05:20.390Z,17.7
2022-11-19T09:06:22.349Z,17.7
2022-11-19T09:07:24.972Z,17.8
2022-11-19T09:08:27.036Z,17.8
2022-11-19T09:09:29.513Z,17.8
2022-11-19T09:10:32.162Z,17.8
2022-11-19T09:12:39.520Z,17.8
2022-11-19T09:13:41.819Z,17.8
2022-11-19T09:14:44.119Z,17.8
2022-11-19T09:15:46.657Z,17.8
2022-11-19T09:16:48.916Z,17.7
2022-11-19T09:17:51.201Z,17.7
2022-11-19T09:18:53.680Z,17.8
2022-11-19T09:19:55.919Z,17.7
2022-11-19T09:20:58.604Z,17.6
2022-11-19T09:22:00.883Z,17.8
2022-11-19T09:23:02.878Z,17.7
2022-11-19T09:24:04.873Z,17.8
2022-11-19T09:25:07.106Z,17.6
2022-11-19T09:26:09.019Z,17.6
2022-11-19T09:27:11.506Z,17.7
2022-11-19T09:28:14.024Z,17.6
2022-11-19T09:29:16.657Z,17.7
2022-11-19T09:30:18.675Z,17.6
2022-11-19T09:31:20.633Z,17.6
2022-11-19T09:33:28.147Z,17.6
2022-11-19T09:34:30.630Z,17.6
2022-11-19T09:35:32.884Z,17.6
2022-11-19T09:36:36.480Z,17.6
2022-11-19T09:37:38.956Z,17.5
2022-11-19T09:38:41.440Z,17.6
2022-11-19T09:39:43.659Z,17.5
2022-11-19T09:40:45.608Z,17.5
2022-11-19T09:41:47.276Z,17.6
2022-11-19T09:42:49.255Z,17.5
2022-11-19T09:43:51.256Z,17.6
2022-11-19T09:44:53.592Z,17.5
2022-11-19T09:45:55.798Z,17.5
2022-11-19T09:46:57.751Z,17.5
2022-11-19T09:48:00.242Z,17.7
2022-11-19T09:49:02.457Z,17.5
2022-11-19T09:50:04.940Z,17.4
2022-11-19T09:51:07.457Z,17.5
2022-11-19T09:52:09.665Z,17.5
2022-11-19T09:53:11.894Z,17.4
2022-11-19T09:54:14.138Z,17.5
2022-11-19T09:55:16.659Z,17.5
2022-11-19T09:56:19.161Z,17.4
2022-11-19T09:57:21.119Z,17.4
2022-11-19T09:58:23.623Z,17.4
2022-11-19T09:59:25.892Z,17.4
2022-11-19T10:00:28.167Z,17.3
2022-11-19T10:01:30.715Z,17.4
2022-11-19T10:02:32.796Z,17.4
2022-11-19T10:03:35.228Z,17.5
2022-11-19T10:04:37.511Z,17.4
2022-11-19T10:05:39.741Z,17.3
2022-11-19T10:06:41.725Z,17.4
2022-11-19T10:07:44.209Z,17.5
2022-11-19T10:08:46.704Z,17.3
2022-11-19T10:09:48.890Z,17.4
2022-11-19T10:10:51.100Z,17.4
2022-11-19T10:11:53.587Z,17.4
2022-11-19T10:12:55.515Z,17.4
2022-11-19T10:13:58.000Z,17.3
2022-11-19T10:15:00.513Z,17.4
2022-11-19T10:16:03.170Z,17.4
2022-11-19T10:17:05.659Z,17.3
2022-11-19T10:18:07.590Z,17.3
2022-11-19T10:19:09.929Z,17.4
2022-11-19T10:20:12.460Z,17.4
2022-11-19T10:21:14.929Z,17.4
2022-11-19T10:22:17.152Z,17.3
2022-11-19T10:23:19.354Z,17.3
2022-11-19T10:24:22.713Z,17.3
2022-11-19T10:25:25.240Z,17.4
2022-11-19T10:26:27.751Z,17.3
2022-11-19T10:27:30.052Z,17.2
2022-11-19T10:28:32.286Z,17.3
2022-11-19T10:29:34.860Z,17.3
2022-11-19T10:30:37.385Z,17.2
2022-11-19T10:31:40.085Z,17.3
2022-11-19T10:32:42.029Z,17.4
2022-11-19T10:33:43.759Z,17.3
2022-11-19T10:34:46.297Z,17.3
2022-11-19T10:35:48.825Z,17.2
2022-11-19T10:36:51.019Z,17.3
2022-11-19T10:37:53.541Z,17.3
2022-11-19T10:38:55.745Z,17.3
2022-11-19T10:39:57.783Z,17.3
2022-11-19T10:40:59.436Z,17.3
2022-11-19T10:42:01.673Z,17.3
2022-11-19T10:43:03.655Z,17.2
2022-11-19T10:44:06.165Z,17.3
2022-11-19T10:45:08.099Z,17.2
2022-11-19T10:46:09.785Z,17.2
2022-11-19T10:47:12.056Z,17.3
2022-11-19T10:48:14.585Z,17.3
2022-11-19T10:49:17.729Z,17.2
2022-11-19T10:50:21.329Z,17.2
2022-11-19T10:51:23.593Z,17.2
2022-11-19T10:52:25.818Z,17.2
2022-11-19T10:53:27.747Z,17.2
2022-11-19T10:54:29.981Z,17.2
2022-11-19T10:55:32.493Z,17.2
2022-11-19T10:56:34.435Z,17.2
2022-11-19T10:57:36.645Z,17.2
2022-11-19T10:58:38.286Z,17.2
2022-11-19T10:59:40.770Z,17.2
2022-11-19T11:00:43.379Z,17.2
2022-11-19T11:01:45.921Z,17.1
2022-11-19T11:02:48.702Z,17.2
2022-11-19T11:03:51.059Z,17.1
2022-11-19T11:04:53.577Z,17.2
2022-11-19T11:05:55.500Z,17
2022-11-19T11:06:58.282Z,17.2
2022-11-19T11:08:01.294Z,17.1
2022-11-19T11:09:03.579Z,17
2022-11-19T11:10:06.097Z,17.1
2022-11-19T11:11:08.290Z,17.1
2022-11-19T11:12:10.814Z,17.2
2022-11-19T11:13:13.340Z,17.1
2022-11-19T11:14:15.871Z,17.1
2022-11-19T11:15:17.569Z,17.2
2022-11-19T11:16:19.800Z,17.2
2022-11-19T11:17:22.039Z,17.2
2022-11-19T11:18:24.604Z,17.1
2022-11-19T11:19:26.508Z,17.1
2022-11-19T11:20:29.011Z,17.2
2022-11-19T11:21:31.245Z,17.2
2022-11-19T11:22:33.804Z,17.3
2022-11-19T11:23:36.045Z,17.2
2022-11-19T11:24:38.032Z,17.2
2022-11-19T11:25:40.535Z,17.2
2022-11-19T11:26:43.047Z,17.2
2022-11-19T11:27:45.247Z,17.2
2022-11-19T11:28:47.190Z,17.3
2022-11-19T11:29:49.116Z,17.2
2022-11-19T11:30:51.602Z,17.2
2022-11-19T11:31:54.088Z,17.3
2022-11-19T11:32:56.322Z,17.2
2022-11-19T11:33:58.903Z,17.3
2022-11-19T11:36:06.406Z,17.3
2022-11-19T11:37:08.721Z,17.3
2022-11-19T11:38:11.233Z,17.3
2022-11-19T11:39:13.737Z,17.3
2022-11-19T11:40:16.243Z,17.2
2022-11-19T11:42:23.446Z,17.2
2022-11-19T11:43:25.948Z,17.3
2022-11-19T11:44:28.447Z,17.3
2022-11-19T11:45:30.673Z,17.3
2022-11-19T11:46:32.899Z,17.3
2022-11-19T11:47:34.855Z,17.3
2022-11-19T11:48:37.474Z,17.3
2022-11-19T11:49:40.045Z,17.3
2022-11-19T11:50:42.525Z,17.2
2022-11-19T11:51:44.746Z,17.3
2022-11-19T11:52:46.977Z,17.3
2022-11-19T11:53:49.505Z,17.3
2022-11-19T11:54:52.006Z,17.3
2022-11-19T11:55:54.236Z,17.3
2022-11-19T11:56:56.755Z,17.3
2022-11-19T11:57:59.269Z,17.3
2022-11-19T11:59:01.786Z,17.4
2022-11-19T12:00:04.323Z,17.3
2022-11-19T12:01:06.687Z,17.2
2022-11-19T12:02:13.493Z,17.4
2022-11-19T12:03:16.262Z,17.3
2022-11-19T12:04:18.514Z,17.2
2022-11-19T12:05:21.157Z,17.3
2022-11-19T12:06:23.381Z,17.3
2022-11-19T12:07:26.115Z,17.3
2022-11-19T12:08:28.700Z,17.3
2022-11-19T12:09:30.946Z,17.4
2022-11-19T12:10:33.178Z,17.4
2022-11-19T12:11:35.416Z,17.5
2022-11-19T12:12:37.647Z,17.4
2022-11-19T12:13:40.157Z,17.4
2022-11-19T12:14:42.390Z,17.4
2022-11-19T12:15:44.870Z,17.3
2022-11-19T12:16:47.374Z,17.3
2022-11-19T12:17:49.882Z,17.5
2022-11-19T12:18:52.379Z,17.3
2022-11-19T12:19:54.904Z,17.4
2022-11-19T12:20:57.532Z,17.4
2022-11-19T12:22:00.040Z,17.4
2022-11-19T12:23:02.253Z,17.3
2022-11-19T12:24:04.738Z,17.4
2022-11-19T12:25:06.947Z,17.3
2022-11-19T12:26:09.454Z,17.3
2022-11-19T12:27:11.937Z,17.5
2022-11-19T12:28:14.422Z,17.4
2022-11-19T12:29:16.802Z,17.3
2022-11-19T12:30:20.582Z,17.4
2022-11-19T12:32:28.100Z,17.3
2022-11-19T12:33:30.633Z,17.4
2022-11-19T12:34:33.126Z,17.3
2022-11-19T12:35:35.365Z,17.4
2022-11-19T12:36:37.944Z,17.4
2022-11-19T12:37:40.165Z,17.4
2022-11-19T12:38:42.378Z,17.4
2022-11-19T12:39:44.583Z,17.5
2022-11-19T12:40:46.844Z,17.4
2022-11-19T12:41:49.064Z,17.4
2022-11-19T12:42:50.977Z,17.4
2022-11-19T12:43:53.179Z,17.4
2022-11-19T12:44:55.124Z,17.4
2022-11-19T12:45:57.040Z,17.4
2022-11-19T12:46:59.526Z,17.4
2022-11-19T12:48:01.737Z,17.4
2022-11-19T12:49:04.226Z,17.4
2022-11-19T12:50:06.453Z,17.3
2022-11-19T12:51:08.969Z,17.4
2022-11-19T12:52:11.520Z,17.4
2022-11-19T12:53:13.461Z,17.4
2022-11-19T12:55:20.950Z,17.4
2022-11-19T12:56:23.318Z,17.4
2022-11-19T12:57:25.226Z,17.5
2022-11-19T12:58:27.443Z,17.4
2022-11-19T12:59:29.638Z,17.4
2022-11-19T13:01:37.209Z,17.4
2022-11-19T13:02:40.200Z,17.3
2022-11-19T13:03:43.046Z,17.4
2022-11-19T13:04:45.408Z,17.4
2022-11-19T13:05:47.969Z,17.3
2022-11-19T13:06:50.276Z,17.5
2022-11-19T13:07:52.949Z,17.5
2022-11-19T13:08:55.492Z,17.4
2022-11-19T13:09:57.987Z,17.5
2022-11-19T13:11:00.208Z,17.5
2022-11-19T13:12:02.472Z,17.6
2022-11-19T13:13:04.968Z,17.6
2022-11-19T13:14:07.237Z,17.5
2022-11-19T13:15:09.458Z,17.4
2022-11-19T13:16:11.949Z,17.6
2022-11-19T13:17:14.167Z,17.6
2022-11-19T13:18:16.392Z,17.5
2022-11-19T13:19:19.307Z,17.6
2022-11-19T13:20:23.612Z,17.6
2022-11-19T13:21:26.121Z,17.6
2022-11-19T13:22:28.363Z,17.7
2022-11-19T13:23:30.924Z,17.7
2022-11-19T13:24:33.125Z,17.7
2022-11-19T13:25:35.076Z,17.7
2022-11-19T13:26:37.020Z,17.7
2022-11-19T13:27:39.283Z,17.7
2022-11-19T13:28:41.567Z,17.8
2022-11-19T13:29:44.092Z,17.7
2022-11-19T13:30:46.590Z,17.7
2022-11-19T13:31:49.087Z,17.8
2022-11-19T13:32:51.605Z,17.7
2022-11-19T13:33:53.794Z,17.8
2022-11-19T13:34:56.138Z,17.8
2022-11-19T13:35:58.359Z,17.8
2022-11-19T13:37:00.855Z,17.8
2022-11-19T13:38:03.369Z,17.8
2022-11-19T13:39:05.926Z,17.8
2022-11-19T13:40:08.473Z,17.8
2022-11-19T13:41:10.959Z,17.9
2022-11-19T13:42:12.941Z,17.8
2022-11-19T13:44:20.424Z,17.9
2022-11-19T13:45:22.919Z,17.8
2022-11-19T13:46:25.124Z,17.8
2022-11-19T13:47:27.335Z,17.8
2022-11-19T13:48:29.557Z,17.8
2022-11-19T13:49:32.059Z,17.9
2022-11-19T13:50:34.021Z,17.9
2022-11-19T13:51:36.234Z,17.9
2022-11-19T13:52:38.449Z,17.9
2022-11-19T13:53:40.715Z,17.9
2022-11-19T13:54:43.000Z,17.9
2022-11-19T13:55:45.617Z,17.9
2022-11-19T13:56:47.825Z,17.9
2022-11-19T13:57:50.025Z,17.9
2022-11-19T13:58:52.252Z,17.8
2022-11-19T13:59:54.757Z,18
2022-11-19T14:00:57.316Z,17.9
2022-11-19T14:02:00.717Z,17.8
2022-11-19T14:03:02.958Z,17.8
2022-11-19T14:04:05.468Z,17.8
2022-11-19T14:05:07.945Z,17.8
2022-11-19T14:06:09.884Z,17.8
2022-11-19T14:07:12.428Z,17.8
2022-11-19T14:08:15.184Z,17.8
2022-11-19T14:09:18.121Z,17.8
2022-11-19T14:10:22.194Z,17.8
2022-11-19T14:11:24.447Z,17.8